createdAt,value
2018-12-29T00:01:02.762Z,48.80
2018-12-29T00:03:57.069Z,48.30
2018-12-29T00:06:52.923Z,48.80
2018-12-29T00:09:46.865Z,48.80
2018-12-29T00:12:40.956Z,48.40
2018-12-29T00:15:35.950Z,48.60
2018-12-29T00:18:29.935Z,48.60
2018-12-29T00:21:24.423Z,48.40
2018-12-29T00:24:18.399Z,48.50
2018-12-29T00:27:12.486Z,48.50
2018-12-29T00:30:08.915Z,48.20
2018-12-29T00:33:05.967Z,48.30
2018-12-29T00:36:00.154Z,48.50
2018-12-29T00:38:55.568Z,48.60
2018-12-29T00:41:49.450Z,48.20
2018-12-29T00:44:44.955Z,48.40
2018-12-29T00:47:39.135Z,48.40
2018-12-29T00:50:36.395Z,48.40
2018-12-29T00:53:30.781Z,48.30
2018-12-29T00:56:25.170Z,48.30
2018-12-29T00:59:19.046Z,48.10
2018-12-29T01:02:14.359Z,47.80
2018-12-29T01:05:07.902Z,48.40
2018-12-29T01:08:01.911Z,48.10
2018-12-29T01:10:55.882Z,47.90
2018-12-29T01:13:49.682Z,47.90
2018-12-29T01:16:43.534Z,48.00
2018-12-29T01:19:39.062Z,47.80
2018-12-29T01:22:32.820Z,48.30
2018-12-29T01:25:27.112Z,48.20
2018-12-29T01:28:21.009Z,48.10
2018-12-29T01:31:14.766Z,48.50
2018-12-29T01:34:10.589Z,48.40
2018-12-29T01:37:04.664Z,47.90
2018-12-29T01:39:58.888Z,47.80
2018-12-29T01:42:54.574Z,47.50
2018-12-29T01:45:51.109Z,48.10
2018-12-29T01:48:47.851Z,47.50
2018-12-29T01:51:43.884Z,47.40
2018-12-29T01:54:38.267Z,47.40
2018-12-29T01:57:32.553Z,47.50
2018-12-29T02:00:26.712Z,47.50
2018-12-29T02:03:23.479Z,47.70
2018-12-29T02:06:17.572Z,41.80
2018-12-29T02:09:11.439Z,40.80
2018-12-29T02:12:06.347Z,41.50
2018-12-29T02:15:00.399Z,42.20
2018-12-29T02:17:54.911Z,43.40
2018-12-29T02:20:49.488Z,43.90
2018-12-29T02:23:44.095Z,43.30
2018-12-29T02:26:38.179Z,43.70
2018-12-29T02:29:36.151Z,43.60
2018-12-29T02:32:30.842Z,44.10
2018-12-29T02:35:26.775Z,43.90
2018-12-29T02:38:21.273Z,43.90
2018-12-29T02:41:16.166Z,44.00
2018-12-29T02:44:12.900Z,44.00
2018-12-29T02:47:09.055Z,44.00
2018-12-29T02:50:03.027Z,44.10
2018-12-29T02:52:58.843Z,44.30
2018-12-29T02:55:52.820Z,44.20
2018-12-29T02:58:53.449Z,44.10
2018-12-29T03:01:47.955Z,43.70
2018-12-29T03:04:42.434Z,43.70
2018-12-29T03:07:36.820Z,43.40
2018-12-29T03:10:31.625Z,43.10
2018-12-29T03:13:26.204Z,43.30
2018-12-29T03:16:20.911Z,43.70
2018-12-29T03:19:20.853Z,43.20
2018-12-29T03:22:14.507Z,43.50
2018-12-29T03:25:09.304Z,43.50
2018-12-29T03:28:04.710Z,43.70
2018-12-29T03:30:59.307Z,43.70
2018-12-29T03:33:54.245Z,43.90
2018-12-29T03:39:55.374Z,43.50
2018-12-29T03:42:49.887Z,43.40
2018-12-29T03:45:49.026Z,43.40
2018-12-29T03:48:40.284Z,42.90
2018-12-29T03:51:35.496Z,43.00
2018-12-29T03:54:30.231Z,43.00
2018-12-29T03:57:25.398Z,42.60
2018-12-29T04:00:21.105Z,42.60
2018-12-29T04:03:16.176Z,43.20
2018-12-29T04:06:11.946Z,43.40
2018-12-29T04:09:25.277Z,43.20
2018-12-29T04:12:32.754Z,43.10
2018-12-29T04:15:27.370Z,40.50
2018-12-29T04:18:22.603Z,40.20
2018-12-29T04:21:17.681Z,48.50
2018-12-29T04:24:20.194Z,49.90
2018-12-29T04:27:07.262Z,48.40
2018-12-29T04:30:01.473Z,47.30
2018-12-29T04:32:55.834Z,46.40
2018-12-29T04:36:04.719Z,45.80
2018-12-29T04:38:58.840Z,44.90
2018-12-29T04:41:57.531Z,44.30
2018-12-29T04:44:54.404Z,43.80
2018-12-29T04:47:49.380Z,43.50
2018-12-29T04:50:50.025Z,42.70
2018-12-29T04:53:48.936Z,42.60
2018-12-29T04:56:42.274Z,42.80
2018-12-29T04:59:43.323Z,43.00
2018-12-29T05:02:38.842Z,43.10
2018-12-29T05:05:34.073Z,43.20
2018-12-29T05:08:30.076Z,43.10
2018-12-29T05:11:25.180Z,43.20
2018-12-29T05:14:22.324Z,43.40
2018-12-29T05:17:18.764Z,43.60
2018-12-29T05:24:19.858Z,40.40
2018-12-29T05:27:12.661Z,38.70
2018-12-29T05:30:25.241Z,38.60
2018-12-29T05:33:31.086Z,38.60
2018-12-29T05:36:20.538Z,38.00
2018-12-29T05:39:15.254Z,37.20
2018-12-29T05:42:12.187Z,37.70
2018-12-29T05:45:09.869Z,37.00
2018-12-29T05:48:05.524Z,37.00
2018-12-29T05:51:01.313Z,36.30
2018-12-29T05:54:04.692Z,35.50
2018-12-29T05:57:08.865Z,35.30
2018-12-29T06:03:02.906Z,34.30
2018-12-29T06:06:04.770Z,34.00
2018-12-29T06:08:59.845Z,33.90
2018-12-29T06:11:55.447Z,34.30
2018-12-29T06:14:52.861Z,34.10
2018-12-29T06:17:48.348Z,33.90
2018-12-29T06:20:42.291Z,34.20
2018-12-29T06:23:43.579Z,34.40
2018-12-29T06:26:36.371Z,34.00
2018-12-29T06:29:30.451Z,33.70
2018-12-29T06:32:25.017Z,33.30
2018-12-29T06:35:22.472Z,33.40
2018-12-29T06:38:47.314Z,33.60
2018-12-29T06:44:34.643Z,33.80
2018-12-29T06:47:23.524Z,34.20
2018-12-29T06:50:20.588Z,33.90
2018-12-29T06:54:29.196Z,33.40
2018-12-29T06:56:14.059Z,32.10
2018-12-29T06:59:07.998Z,32.40
2018-12-29T07:02:23.995Z,33.00
2018-12-29T07:05:34.910Z,33.10
2018-12-29T07:08:29.294Z,33.20
2018-12-29T07:12:00.039Z,32.60
2018-12-29T07:14:50.082Z,32.70
2018-12-29T07:17:45.463Z,32.90
2018-12-29T07:20:43.019Z,32.50
2018-12-29T07:23:42.848Z,32.70
2018-12-29T07:26:38.900Z,32.70
2018-12-29T07:30:34.184Z,32.30
2018-12-29T07:33:45.099Z,32.10
2018-12-29T07:36:38.243Z,32.30
2018-12-29T07:39:49.770Z,32.60
2018-12-29T07:42:43.556Z,32.60
2018-12-29T07:45:37.693Z,32.10
2018-12-29T07:48:32.620Z,32.10
2018-12-29T07:51:26.655Z,32.70
2018-12-29T07:54:32.109Z,32.40
2018-12-29T07:57:25.905Z,32.50
2018-12-29T08:00:21.213Z,32.70
2018-12-29T08:03:28.630Z,33.10
2018-12-29T08:06:14.921Z,33.40
2018-12-29T08:09:12.340Z,33.90
2018-12-29T08:16:04.377Z,34.20
2018-12-29T08:19:48.709Z,34.20
2018-12-29T08:22:52.859Z,33.80
2018-12-29T08:29:05.750Z,33.70
2018-12-29T08:32:03.323Z,34.20
2018-12-29T08:35:10.045Z,34.10
2018-12-29T08:38:11.477Z,34.20
2018-12-29T08:41:06.142Z,34.10
2018-12-29T08:44:00.435Z,34.30
2018-12-29T08:47:04.622Z,34.00
2018-12-29T08:49:56.613Z,34.80
2018-12-29T08:53:03.655Z,35.70
2018-12-29T08:56:05.098Z,36.30
2018-12-29T08:59:08.137Z,36.80
2018-12-29T09:02:16.502Z,37.00
2018-12-29T09:05:22.251Z,37.20
2018-12-29T09:08:24.169Z,37.60
2018-12-29T09:11:28.575Z,37.80
2018-12-29T09:14:44.673Z,37.80
2018-12-29T09:17:46.672Z,38.60
2018-12-29T09:20:50.935Z,38.60
2018-12-29T09:23:52.870Z,38.80
2018-12-29T09:26:53.869Z,38.60
2018-12-29T09:30:00.553Z,38.80
2018-12-29T09:33:48.486Z,38.90
2018-12-29T09:36:42.249Z,39.00
2018-12-29T09:39:53.256Z,38.90
2018-12-29T09:43:29.773Z,39.30
2018-12-29T10:01:21.197Z,40.20
2018-12-29T10:04:56.287Z,40.20
2018-12-29T10:07:50.465Z,40.40
2018-12-29T10:14:16.532Z,40.70
2018-12-29T10:18:01.896Z,40.90
2018-12-29T10:20:52.094Z,41.10
2018-12-29T10:23:53.039Z,41.00
2018-12-29T11:25:44.302Z,43.10
2018-12-29T11:32:54.259Z,43.10
2018-12-29T11:43:09.211Z,43.40
2018-12-29T11:46:07.997Z,43.50
2018-12-29T11:49:04.770Z,43.60
2018-12-29T11:51:58.636Z,43.70
2018-12-29T11:55:21.548Z,43.80
2018-12-29T12:01:41.949Z,44.00
2018-12-29T12:04:42.808Z,44.00
2018-12-29T12:08:15.858Z,44.20
2018-12-29T12:11:29.746Z,44.20
2018-12-29T12:14:44.234Z,44.30
2018-12-29T12:17:57.411Z,44.30
2018-12-29T12:21:09.835Z,44.40
2018-12-29T12:28:02.314Z,44.60
2018-12-29T12:31:14.151Z,44.80
2018-12-29T12:34:19.979Z,44.60
2018-12-29T12:37:18.902Z,44.70
2018-12-29T12:40:20.000Z,44.90
2018-12-29T12:43:19.730Z,45.00
2018-12-29T12:46:15.369Z,45.00
2018-12-29T12:49:14.757Z,45.00
2018-12-29T12:52:13.657Z,45.00
2018-12-29T12:55:12.411Z,44.90
2018-12-29T12:58:06.402Z,45.10
2018-12-29T13:01:00.951Z,45.20
2018-12-29T13:03:59.192Z,45.20
2018-12-29T13:06:53.600Z,45.20
2018-12-29T13:09:48.828Z,45.40
2018-12-29T13:12:43.163Z,45.50
2018-12-29T13:15:39.083Z,45.50
2018-12-29T13:18:37.647Z,45.50
2018-12-29T13:21:40.424Z,45.50
2018-12-29T13:24:34.651Z,45.30
2018-12-29T13:27:29.531Z,45.40
2018-12-29T13:30:23.953Z,45.50
2018-12-29T13:33:19.447Z,45.50
2018-12-29T13:36:18.146Z,45.50
2018-12-29T13:39:13.658Z,45.60
2018-12-29T13:42:12.984Z,45.60
2018-12-29T13:45:04.771Z,45.50
2018-12-29T13:47:59.912Z,45.60
2018-12-29T13:50:55.791Z,45.50
2018-12-29T13:53:55.514Z,45.60
2018-12-29T13:56:52.945Z,45.70
2018-12-29T14:00:05.740Z,45.70
2018-12-29T14:03:03.827Z,45.60
2018-12-29T14:06:00.327Z,45.70
2018-12-29T14:09:01.165Z,45.80
2018-12-29T14:11:55.753Z,45.70
2018-12-29T14:15:43.805Z,45.70
2018-12-29T14:19:03.135Z,45.80
2018-12-29T14:22:00.722Z,45.80
2018-12-29T14:25:02.333Z,45.90
2018-12-29T14:27:59.032Z,45.90
2018-12-29T14:30:59.866Z,46.10
2018-12-29T14:34:26.952Z,46.10
2018-12-29T14:37:24.583Z,46.20
2018-12-29T14:40:23.816Z,46.20
2018-12-29T14:43:18.470Z,46.20
2018-12-29T14:46:17.773Z,46.20
2018-12-29T14:49:29.074Z,46.30
2018-12-29T14:52:36.385Z,46.40
2018-12-29T14:55:45.622Z,46.40
2018-12-29T14:58:43.286Z,46.50
2018-12-29T15:01:49.948Z,46.30
2018-12-29T15:04:48.148Z,46.40
2018-12-29T15:07:47.682Z,46.50
2018-12-29T15:10:52.514Z,46.50
2018-12-29T15:13:53.630Z,46.40
2018-12-29T15:16:48.013Z,46.50
2018-12-29T15:19:46.772Z,46.50
2018-12-29T15:22:44.234Z,46.60
2018-12-29T15:25:43.548Z,46.60
2018-12-29T15:28:35.481Z,46.50
2018-12-29T15:31:30.780Z,46.50
2018-12-29T15:34:26.202Z,46.50
2018-12-29T15:37:21.040Z,46.40
2018-12-29T15:40:20.976Z,46.40
2018-12-29T15:43:19.847Z,46.50
2018-12-29T15:46:17.599Z,46.60
2018-12-29T15:49:12.709Z,46.60
2018-12-29T15:52:18.758Z,46.50
2018-12-29T15:55:16.149Z,46.40
2018-12-29T15:58:38.346Z,46.60
2018-12-29T16:01:36.779Z,46.50
2018-12-29T16:04:32.334Z,46.50
2018-12-29T16:07:29.844Z,46.50
2018-12-29T16:10:28.393Z,46.30
2018-12-29T16:13:30.765Z,46.40
2018-12-29T16:16:42.046Z,46.40
2018-12-29T16:20:10.582Z,46.60
2018-12-29T16:22:46.690Z,46.50
2018-12-29T16:25:44.874Z,46.20
2018-12-29T16:28:39.570Z,46.50
2018-12-29T16:31:35.383Z,46.50
2018-12-29T16:34:32.961Z,46.50
2018-12-29T16:37:27.460Z,46.50
2018-12-29T16:40:47.575Z,46.50
2018-12-29T16:43:43.710Z,47.10
2018-12-29T16:46:44.916Z,46.70
2018-12-29T16:49:41.021Z,46.70
2018-12-29T16:52:38.145Z,46.50
2018-12-29T16:55:31.162Z,46.60
2018-12-29T16:58:25.435Z,46.50
2018-12-29T17:01:19.735Z,46.60
2018-12-29T17:04:24.559Z,46.50
2018-12-29T17:07:21.300Z,46.60
2018-12-29T17:10:15.585Z,46.50
2018-12-29T17:13:10.390Z,46.50
2018-12-29T17:16:04.781Z,46.50
2018-12-29T17:19:04.560Z,46.30
2018-12-29T17:21:59.802Z,46.30
2018-12-29T17:24:56.855Z,46.40
2018-12-29T17:27:52.573Z,46.50
2018-12-29T17:30:48.041Z,46.40
2018-12-29T17:33:42.271Z,46.30
2018-12-29T17:36:41.867Z,46.30
2018-12-29T17:39:32.477Z,46.40
2018-12-29T17:42:32.254Z,46.30
2018-12-29T17:45:34.168Z,46.40
2018-12-29T17:48:31.623Z,46.30
2018-12-29T17:51:25.815Z,46.20
2018-12-29T17:54:19.983Z,46.20
2018-12-29T17:57:16.578Z,46.20
2018-12-29T18:00:12.130Z,46.10
2018-12-29T18:03:08.775Z,46.00
2018-12-29T18:06:06.073Z,46.10
2018-12-29T18:09:05.558Z,46.20
2018-12-29T18:11:57.798Z,46.20
2018-12-29T18:14:52.480Z,46.20
2018-12-29T18:17:50.156Z,45.90
2018-12-29T18:20:44.408Z,46.80
2018-12-29T18:23:41.385Z,46.10
2018-12-29T18:26:35.380Z,46.10
2018-12-29T18:29:30.995Z,46.30
2018-12-29T18:32:25.590Z,46.10
2018-12-29T18:35:22.266Z,46.20
2018-12-29T18:38:15.578Z,46.10
2018-12-29T18:41:10.090Z,46.20
2018-12-29T18:44:05.245Z,46.30
2018-12-29T18:47:03.343Z,46.30
2018-12-29T18:49:58.283Z,46.30
2018-12-29T18:52:52.221Z,46.30
2018-12-29T18:55:49.548Z,46.20
2018-12-29T18:58:46.347Z,46.40
2018-12-29T19:01:38.867Z,46.50
2018-12-29T19:04:33.909Z,46.60
2018-12-29T19:07:28.468Z,46.70
2018-12-29T19:10:22.409Z,46.70
2018-12-29T19:13:17.568Z,46.60
2018-12-29T19:16:12.654Z,46.60
2018-12-29T19:19:07.474Z,46.50
2018-12-29T19:22:01.564Z,46.60
2018-12-29T19:24:55.947Z,46.60
2018-12-29T19:27:51.338Z,46.50
2018-12-29T19:30:45.927Z,46.50
2018-12-29T19:33:41.139Z,46.50
2018-12-29T19:36:35.935Z,46.50
2018-12-29T19:39:30.789Z,46.50
2018-12-29T19:42:28.184Z,46.50
2018-12-29T19:45:22.299Z,46.50
2018-12-29T19:48:16.792Z,46.40
2018-12-29T19:51:11.149Z,46.50
2018-12-29T19:54:05.248Z,46.40
2018-12-29T19:56:59.513Z,46.30
2018-12-29T19:59:55.345Z,46.40
2018-12-29T20:02:50.063Z,46.40
2018-12-29T20:05:44.863Z,46.40
2018-12-29T20:08:41.164Z,46.20
2018-12-29T20:11:35.479Z,46.30
2018-12-29T20:14:29.759Z,46.40
2018-12-29T20:17:23.799Z,46.40
2018-12-29T20:20:18.614Z,46.40
2018-12-29T20:23:12.600Z,46.50
2018-12-29T20:26:06.884Z,46.60
2018-12-29T20:29:00.684Z,46.60
2018-12-29T20:31:55.043Z,46.50
2018-12-29T20:34:49.043Z,46.60
2018-12-29T20:37:46.994Z,46.50
2018-12-29T20:40:41.801Z,46.70
2018-12-29T20:43:38.687Z,46.60
2018-12-29T20:46:32.733Z,46.70
2018-12-29T20:49:26.715Z,46.60
2018-12-29T20:52:20.712Z,46.60
2018-12-29T20:55:15.986Z,46.60
2018-12-29T20:58:10.255Z,46.60
2018-12-29T21:01:04.982Z,46.40
2018-12-29T21:03:59.480Z,46.60
2018-12-29T21:06:53.559Z,46.50
2018-12-29T21:09:48.251Z,46.60
2018-12-29T21:12:42.318Z,46.60
2018-12-29T21:15:36.433Z,46.40
2018-12-29T21:18:32.433Z,46.60
2018-12-29T21:21:28.111Z,46.50
2018-12-29T21:24:26.674Z,46.20
2018-12-29T21:27:20.824Z,46.20
2018-12-29T21:30:15.106Z,46.30
2018-12-29T21:33:09.167Z,46.20
2018-12-29T21:36:04.797Z,46.40
2018-12-29T21:38:58.999Z,46.20
2018-12-29T21:41:53.691Z,46.10
2018-12-29T21:44:51.679Z,46.10
2018-12-29T21:47:44.204Z,46.30
2018-12-29T21:50:38.161Z,46.10
2018-12-29T21:53:34.698Z,46.20
2018-12-29T21:56:27.316Z,46.20
2018-12-29T21:59:24.519Z,46.30
2018-12-29T22:02:19.927Z,46.30
2018-12-29T22:05:14.219Z,46.20
2018-12-29T22:08:11.471Z,46.10
2018-12-29T22:11:14.236Z,46.20
2018-12-29T22:14:00.161Z,46.20
2018-12-29T22:16:53.647Z,46.20
2018-12-29T22:19:47.998Z,46.10
2018-12-29T22:22:41.782Z,46.10
2018-12-29T22:25:38.122Z,45.90
2018-12-29T22:28:33.219Z,45.90
2018-12-29T22:31:27.913Z,46.00
2018-12-29T22:34:21.562Z,46.00
2018-12-29T22:37:20.846Z,45.90
2018-12-29T22:40:13.177Z,46.00
2018-12-29T22:43:08.032Z,45.90
2018-12-29T22:46:02.100Z,45.80
2018-12-29T22:49:01.686Z,45.80
2018-12-29T22:51:52.628Z,45.70
2018-12-29T22:54:48.362Z,45.70
2018-12-29T22:57:42.285Z,45.80
2018-12-29T23:00:53.864Z,45.70
2018-12-29T23:03:49.733Z,45.80
2018-12-29T23:06:43.709Z,45.80
2018-12-29T23:09:37.791Z,45.90
2018-12-29T23:12:31.779Z,46.00
2018-12-29T23:15:28.411Z,45.80
2018-12-29T23:18:23.514Z,45.90
2018-12-29T23:21:18.844Z,45.70
2018-12-29T23:24:13.627Z,45.70
2018-12-29T23:27:07.862Z,45.80
2018-12-29T23:30:04.768Z,45.80
2018-12-29T23:32:59.333Z,45.80
2018-12-29T23:35:53.005Z,45.70
2018-12-29T23:38:48.437Z,45.90
2018-12-29T23:41:42.217Z,45.70
2018-12-29T23:44:35.894Z,45.60
2018-12-29T23:47:30.427Z,45.80
2018-12-29T23:50:24.867Z,45.90
2018-12-29T23:53:19.681Z,45.80
2018-12-29T23:56:14.050Z,45.90
2018-12-29T23:59:08.645Z,45.80
